Time;durP1;ratioP1;P1;durP2;ratioP2;P2;SDS_P1;SDS_P2;PMS_P1;PMS_P2;Temp;Humidity;BMP_temperature;BMP_pressure;BME280_temperature;BME280_humidity;BME280_pressure;Samples;Min_cycle;Max_cycle;Signal;HPM_P1;HPM_P2
2023/07/30 00:01:21;;;;;;;4.47;2.87;;;;;;;;;;756887;184;683418;-85
2023/07/30 00:03:47;;;;;;;4.13;2.20;;;;;;;;;;762387;184;642627;-83
2023/07/30 00:06:13;;;;;;;9.03;2.37;;;;;;;;;;756725;184;672654;-85
2023/07/30 00:08:38;;;;;;;3.10;2.00;;;;;;;;;;760808;180;696677;-62
2023/07/30 00:11:04;;;;;;;14.43;4.97;;;;;;;;;;738802;188;919526;-61
2023/07/30 00:13:30;;;;;;;8.93;3.03;;;;;;;;;;736806;188;922835;-62
2023/07/30 00:15:56;;;;;;;8.90;2.57;;;;;;;;;;742218;190;919464;-62
2023/07/30 00:18:22;;;;;;;6.53;3.50;;;;;;;;;;734791;190;1124059;-62
2023/07/30 00:20:48;;;;;;;22.00;3.40;;;;;;;;;;737152;190;919614;-65
2023/07/30 00:23:14;;;;;;;16.80;3.03;;;;;;;;;;741467;190;916072;-62
2023/07/30 00:25:40;;;;;;;10.50;3.17;;;;;;;;;;745483;187;919322;-61
2023/07/30 00:28:06;;;;;;;6.50;2.60;;;;;;;;;;736897;190;919287;-62
2023/07/30 00:30:32;;;;;;;7.97;3.10;;;;;;;;;;737403;190;842511;-62
2023/07/30 00:32:58;;;;;;;12.77;3.83;;;;;;;;;;741380;190;917386;-65
2023/07/30 00:35:23;;;;;;;7.93;2.60;;;;;;;;;;736702;190;919243;-66
2023/07/30 00:37:49;;;;;;;7.90;2.73;;;;;;;;;;735415;190;919624;-61
2023/07/30 00:40:15;;;;;;;15.50;2.33;;;;;;;;;;733928;191;915097;-65
2023/07/30 00:42:41;;;;;;;7.20;2.70;;;;;;;;;;737658;189;1018760;-63
2023/07/30 00:45:07;;;;;;;9.83;2.80;;;;;;;;;;738388;189;918971;-63
2023/07/30 00:47:33;;;;;;;13.20;2.77;;;;;;;;;;743738;190;918524;-61
2023/07/30 00:49:59;;;;;;;10.60;2.50;;;;;;;;;;737207;190;1019998;-63
2023/07/30 00:52:25;;;;;;;7.37;2.30;;;;;;;;;;738694;190;919200;-63
2023/07/30 00:54:51;;;;;;;10.17;2.47;;;;;;;;;;738360;190;913928;-63
2023/07/30 00:57:17;;;;;;;8.60;3.00;;;;;;;;;;742966;190;919276;-66
2023/07/30 00:59:42;;;;;;;23.20;3.97;;;;;;;;;;738971;190;917930;-67
2023/07/30 01:02:08;;;;;;;10.90;3.37;;;;;;;;;;738397;190;918076;-67
2023/07/30 01:04:37;;;;;;;9.93;3.90;;;;;;;;;;742603;190;918076;-63
2023/07/30 01:07:00;;;;;;;12.33;3.37;;;;;;;;;;739788;190;806878;-66
2023/07/30 01:09:26;;;;;;;15.52;5.45;;;;;;;;;;736811;190;917553;-67
2023/07/30 01:11:52;;;;;;;8.43;3.37;;;;;;;;;;739417;191;916585;-67
2023/07/30 01:14:18;;;;;;;9.57;3.03;;;;;;;;;;737452;190;917746;-64
2023/07/30 01:16:43;;;;;;;13.88;3.10;;;;;;;;;;740196;190;915628;-66
2023/07/30 01:19:09;;;;;;;7.50;2.80;;;;;;;;;;736654;190;917650;-66
2023/07/30 01:21:35;;;;;;;6.03;3.13;;;;;;;;;;734108;190;919667;-63
2023/07/30 01:24:01;;;;;;;8.87;2.60;;;;;;;;;;736961;190;920682;-62
2023/07/30 01:26:27;;;;;;;6.67;3.00;;;;;;;;;;736973;190;919333;-66
2023/07/30 01:28:53;;;;;;;9.27;2.67;;;;;;;;;;741995;190;835414;-67
2023/07/30 01:31:19;;;;;;;12.27;2.60;;;;;;;;;;738262;190;917814;-66
2023/07/30 01:33:46;;;;;;;11.85;3.35;;;;;;;;;;738286;190;918750;-67
2023/07/30 01:36:11;;;;;;;16.77;3.07;;;;;;;;;;741334;190;918928;-67
2023/07/30 01:38:37;;;;;;;15.57;2.90;;;;;;;;;;737246;190;905003;-67
2023/07/30 01:41:03;;;;;;;9.27;3.53;;;;;;;;;;734831;190;919428;-62
2023/07/30 01:43:29;;;;;;;11.10;2.60;;;;;;;;;;735252;190;932029;-67
2023/07/30 01:45:55;;;;;;;17.23;3.30;;;;;;;;;;738372;190;821851;-66
2023/07/30 01:48:21;;;;;;;9.90;2.70;;;;;;;;;;736779;190;918092;-66
2023/07/30 01:50:48;;;;;;;9.33;3.23;;;;;;;;;;738267;190;920613;-62
2023/07/30 01:53:13;;;;;;;12.33;2.70;;;;;;;;;;743296;190;923067;-66
2023/07/30 01:55:43;;;;;;;16.70;4.07;;;;;;;;;;739619;188;917913;-66
2023/07/30 01:58:05;;;;;;;8.73;2.77;;;;;;;;;;739042;189;920974;-66
2023/07/30 02:00:31;;;;;;;11.60;3.13;;;;;;;;;;743228;190;919394;-66
2023/07/30 02:02:57;;;;;;;7.07;3.17;;;;;;;;;;740263;190;814037;-65
2023/07/30 02:05:22;;;;;;;8.87;3.87;;;;;;;;;;736985;190;919214;-66
2023/07/30 02:07:48;;;;;;;20.33;3.53;;;;;;;;;;738483;190;919162;-66
2023/07/30 02:10:14;;;;;;;17.63;3.40;;;;;;;;;;740350;190;914550;-62
2023/07/30 02:12:40;;;;;;;25.13;3.70;;;;;;;;;;738668;190;910939;-66
2023/07/30 02:15:06;;;;;;;10.93;3.50;;;;;;;;;;737031;190;918767;-66
2023/07/30 02:17:32;;;;;;;11.80;2.80;;;;;;;;;;742687;190;919009;-62
2023/07/30 02:19:58;;;;;;;11.30;3.00;;;;;;;;;;737515;190;911973;-62
2023/07/30 02:22:24;;;;;;;11.63;3.13;;;;;;;;;;737567;190;919480;-61
2023/07/30 02:24:50;;;;;;;5.20;2.83;;;;;;;;;;741894;190;848863;-61
2023/07/30 02:27:15;;;;;;;7.20;3.50;;;;;;;;;;739985;190;918464;-62
2023/07/30 02:29:42;;;;;;;9.63;3.10;;;;;;;;;;737239;190;918275;-62
2023/07/30 02:32:08;;;;;;;9.38;2.92;;;;;;;;;;740911;188;919652;-62
2023/07/30 02:34:34;;;;;;;9.80;3.33;;;;;;;;;;737378;190;918571;-65
2023/07/30 02:36:59;;;;;;;7.90;2.80;;;;;;;;;;736899;190;919414;-62
2023/07/30 02:39:25;;;;;;;10.93;3.57;;;;;;;;;;738054;190;916673;-62
2023/07/30 02:41:51;;;;;;;5.30;2.80;;;;;;;;;;740559;191;919308;-62
2023/07/30 02:44:17;;;;;;;5.27;2.80;;;;;;;;;;737727;190;919157;-62
2023/07/30 02:46:43;;;;;;;7.93;3.20;;;;;;;;;;736578;189;912223;-62
2023/07/30 02:49:09;;;;;;;6.82;3.15;;;;;;;;;;743066;190;816578;-66
2023/07/30 02:51:35;;;;;;;10.80;3.57;;;;;;;;;;737717;189;919464;-66
2023/07/30 02:54:01;;;;;;;6.50;3.30;;;;;;;;;;736766;190;917926;-65
2023/07/30 02:56:26;;;;;;;5.13;3.43;;;;;;;;;;740523;190;815969;-62
2023/07/30 02:58:52;;;;;;;10.63;3.90;;;;;;;;;;738919;190;893751;-66
2023/07/30 03:01:18;;;;;;;5.67;3.10;;;;;;;;;;736864;190;916300;-66
2023/07/30 03:03:44;;;;;;;16.87;3.40;;;;;;;;;;738290;189;916614;-62
2023/07/30 03:06:10;;;;;;;7.60;3.30;;;;;;;;;;743772;188;891777;-61
2023/07/30 03:08:36;;;;;;;6.93;3.00;;;;;;;;;;738818;189;915930;-61
2023/07/30 03:11:01;;;;;;;9.45;2.85;;;;;;;;;;739507;190;920371;-61
2023/07/30 03:13:27;;;;;;;9.30;4.30;;;;;;;;;;743519;190;918403;-66
2023/07/30 03:15:53;;;;;;;11.00;3.77;;;;;;;;;;738852;190;920526;-67
2023/07/30 03:18:19;;;;;;;9.43;3.73;;;;;;;;;;737826;190;919465;-67
2023/07/30 03:20:45;;;;;;;5.97;3.50;;;;;;;;;;742877;190;919473;-61
2023/07/30 03:23:11;;;;;;;5.17;2.90;;;;;;;;;;738697;190;917851;-62
2023/07/30 03:25:36;;;;;;;10.60;3.60;;;;;;;;;;738029;190;920732;-65
2023/07/30 03:28:02;;;;;;;7.50;3.30;;;;;;;;;;738348;190;919455;-61
2023/07/30 03:30:28;;;;;;;5.72;2.72;;;;;;;;;;747544;187;918648;-65
2023/07/30 03:32:54;;;;;;;11.23;3.30;;;;;;;;;;735035;190;919223;-61
2023/07/30 03:35:20;;;;;;;8.23;3.30;;;;;;;;;;738101;190;915668;-61
2023/07/30 03:37:46;;;;;;;10.55;3.50;;;;;;;;;;743930;190;913207;-61
2023/07/30 03:40:12;;;;;;;10.03;3.60;;;;;;;;;;736792;190;934727;-66
2023/07/30 03:42:37;;;;;;;6.03;3.00;;;;;;;;;;737433;190;912602;-65
2023/07/30 03:45:03;;;;;;;6.10;3.27;;;;;;;;;;742303;190;906983;-61
2023/07/30 03:47:29;;;;;;;4.57;2.87;;;;;;;;;;738899;190;824774;-67
2023/07/30 03:49:55;;;;;;;8.57;3.50;;;;;;;;;;739119;190;840649;-67
2023/07/30 03:52:21;;;;;;;7.25;3.33;;;;;;;;;;738969;190;1017710;-65
2023/07/30 03:54:47;;;;;;;5.37;3.70;;;;;;;;;;746535;189;817248;-65
2023/07/30 03:57:13;;;;;;;5.30;3.33;;;;;;;;;;737714;190;910862;-60
2023/07/30 03:59:39;;;;;;;6.07;3.13;;;;;;;;;;738145;190;811673;-61
2023/07/30 04:02:05;;;;;;;9.93;3.37;;;;;;;;;;742460;190;914455;-60
2023/07/30 04:04:31;;;;;;;8.00;3.20;;;;;;;;;;737408;190;913229;-61
2023/07/30 04:06:56;;;;;;;5.63;3.57;;;;;;;;;;738645;190;919730;-61
2023/07/30 04:09:22;;;;;;;11.23;3.50;;;;;;;;;;742604;190;1020867;-66
2023/07/30 04:11:49;;;;;;;7.43;4.20;;;;;;;;;;737661;190;914194;-66
2023/07/30 04:14:15;;;;;;;18.87;3.67;;;;;;;;;;735252;190;1017732;-60
2023/07/30 04:16:43;;;;;;;5.93;3.57;;;;;;;;;;740663;190;916786;-61
2023/07/30 04:19:07;;;;;;;5.93;3.00;;;;;;;;;;739285;189;914417;-61
2023/07/30 04:21:33;;;;;;;6.50;3.17;;;;;;;;;;739778;190;910368;-66
2023/07/30 04:23:59;;;;;;;5.37;3.42;;;;;;;;;;739682;190;912928;-66
2023/07/30 04:26:24;;;;;;;5.93;3.77;;;;;;;;;;742642;190;914979;-61
2023/07/30 04:28:50;;;;;;;11.33;2.87;;;;;;;;;;736770;190;915110;-66
2023/07/30 04:31:16;;;;;;;5.83;2.30;;;;;;;;;;738165;190;1015853;-61
2023/07/30 04:33:42;;;;;;;10.10;3.70;;;;;;;;;;742749;190;1019476;-66
2023/07/30 04:36:08;;;;;;;6.22;3.08;;;;;;;;;;736719;190;917300;-61
2023/07/30 04:38:34;;;;;;;6.13;3.57;;;;;;;;;;736873;188;918636;-61
2023/07/30 04:40:59;;;;;;;4.73;3.30;;;;;;;;;;742992;190;919744;-65
2023/07/30 04:43:25;;;;;;;10.93;4.07;;;;;;;;;;737605;190;923476;-65
2023/07/30 04:45:51;;;;;;;8.50;3.30;;;;;;;;;;736589;190;917011;-60
2023/07/30 04:48:17;;;;;;;7.07;3.00;;;;;;;;;;738146;190;850653;-61
2023/07/30 04:50:43;;;;;;;6.00;2.77;;;;;;;;;;742068;190;918869;-65
2023/07/30 04:53:09;;;;;;;10.37;3.80;;;;;;;;;;737910;190;922437;-61
2023/07/30 04:55:34;;;;;;;5.63;3.10;;;;;;;;;;738248;190;917732;-61
2023/07/30 04:58:00;;;;;;;4.30;2.77;;;;;;;;;;742556;190;922729;-66
2023/07/30 05:00:26;;;;;;;5.30;3.03;;;;;;;;;;737982;190;899053;-66
2023/07/30 05:02:52;;;;;;;4.13;3.00;;;;;;;;;;736603;190;919715;-65
2023/07/30 05:05:18;;;;;;;8.23;3.37;;;;;;;;;;742683;190;918572;-65
2023/07/30 05:07:44;;;;;;;7.20;3.20;;;;;;;;;;736673;190;816452;-65
2023/07/30 05:10:10;;;;;;;8.73;3.50;;;;;;;;;;737082;190;820681;-65
2023/07/30 05:12:35;;;;;;;7.50;3.50;;;;;;;;;;735411;190;940029;-65
2023/07/30 05:15:01;;;;;;;4.37;3.13;;;;;;;;;;739861;190;824424;-61
2023/07/30 05:17:27;;;;;;;10.30;3.30;;;;;;;;;;738854;190;916964;-65
2023/07/30 05:19:53;;;;;;;4.83;2.67;;;;;;;;;;738003;190;917158;-65
2023/07/30 05:22:19;;;;;;;8.53;3.47;;;;;;;;;;740045;190;916885;-60
2023/07/30 05:24:45;;;;;;;5.40;3.20;;;;;;;;;;737037;190;917873;-61
2023/07/30 05:27:10;;;;;;;6.50;3.17;;;;;;;;;;736017;190;1025608;-60
2023/07/30 05:29:36;;;;;;;6.00;2.47;;;;;;;;;;741565;189;917734;-60
2023/07/30 05:32:02;;;;;;;4.03;2.83;;;;;;;;;;738751;190;919369;-61
2023/07/30 05:34:28;;;;;;;3.60;2.30;;;;;;;;;;736352;190;916863;-60
2023/07/30 05:36:54;;;;;;;11.10;3.40;;;;;;;;;;739483;190;919485;-61
2023/07/30 05:39:20;;;;;;;7.00;2.93;;;;;;;;;;745820;187;913753;-64
2023/07/30 05:41:46;;;;;;;7.33;3.03;;;;;;;;;;737074;190;919092;-66
2023/07/30 05:44:12;;;;;;;5.55;2.85;;;;;;;;;;739552;190;918287;-65
2023/07/30 05:46:37;;;;;;;10.80;3.60;;;;;;;;;;741443;190;933906;-66
2023/07/30 05:49:03;;;;;;;5.73;2.83;;;;;;;;;;737129;190;1123655;-60
2023/07/30 05:51:29;;;;;;;7.30;3.00;;;;;;;;;;738041;189;919716;-60
2023/07/30 05:53:55;;;;;;;4.87;2.27;;;;;;;;;;742545;190;920238;-60
2023/07/30 05:56:21;;;;;;;5.10;2.60;;;;;;;;;;737423;190;919849;-65
2023/07/30 05:58:47;;;;;;;6.60;2.50;;;;;;;;;;738807;190;919738;-65
2023/07/30 06:01:12;;;;;;;4.70;2.83;;;;;;;;;;741852;190;918149;-65
2023/07/30 06:03:38;;;;;;;10.50;3.40;;;;;;;;;;737511;190;935361;-65
2023/07/30 06:06:04;;;;;;;8.23;3.27;;;;;;;;;;737182;190;933325;-60
2023/07/30 06:08:30;;;;;;;7.63;3.10;;;;;;;;;;736027;190;915501;-66
2023/07/30 06:10:56;;;;;;;9.17;2.90;;;;;;;;;;740193;190;918336;-60
2023/07/30 06:13:22;;;;;;;5.67;2.50;;;;;;;;;;735651;190;918857;-64
2023/07/30 06:15:48;;;;;;;6.43;2.97;;;;;;;;;;736384;190;920821;-60
2023/07/30 06:18:13;;;;;;;5.50;2.57;;;;;;;;;;742382;190;917605;-60
2023/07/30 06:20:39;;;;;;;8.37;3.23;;;;;;;;;;737960;190;914396;-61
2023/07/30 06:23:05;;;;;;;6.40;3.05;;;;;;;;;;737022;189;901770;-64
2023/07/30 06:25:31;;;;;;;10.57;3.47;;;;;;;;;;742957;190;933590;-65
2023/07/30 06:27:58;;;;;;;7.03;3.20;;;;;;;;;;738643;190;897355;-65
2023/07/30 06:30:23;;;;;;;7.50;3.22;;;;;;;;;;735944;190;918952;-66
2023/07/30 06:32:49;;;;;;;5.43;3.10;;;;;;;;;;736822;190;919603;-61
2023/07/30 06:35:14;;;;;;;4.10;2.50;;;;;;;;;;734445;190;930162;-61
2023/07/30 06:37:40;;;;;;;9.00;2.80;;;;;;;;;;736244;190;942436;-65
2023/07/30 06:40:06;;;;;;;4.70;2.20;;;;;;;;;;737490;190;922542;-62
2023/07/30 06:42:33;;;;;;;4.63;2.40;;;;;;;;;;744650;189;854999;-61
2023/07/30 06:44:58;;;;;;;5.43;1.87;;;;;;;;;;737390;190;1022669;-66
2023/07/30 06:47:24;;;;;;;3.70;1.80;;;;;;;;;;737919;190;1109811;-67
2023/07/30 06:49:50;;;;;;;6.13;2.47;;;;;;;;;;744003;190;799774;-66
2023/07/30 06:52:16;;;;;;;4.90;2.23;;;;;;;;;;737360;190;918559;-65
2023/07/30 06:54:41;;;;;;;3.97;2.00;;;;;;;;;;737344;190;917426;-66
2023/07/30 06:57:08;;;;;;;3.30;1.70;;;;;;;;;;742976;190;812139;-61
2023/07/30 06:59:34;;;;;;;9.07;1.80;;;;;;;;;;736792;190;911542;-66
2023/07/30 07:01:59;;;;;;;3.60;2.07;;;;;;;;;;737366;190;918599;-62
2023/07/30 07:04:25;;;;;;;3.50;2.10;;;;;;;;;;738500;190;816312;-62
2023/07/30 07:06:51;;;;;;;3.20;1.70;;;;;;;;;;741051;190;915555;-65
2023/07/30 07:09:17;;;;;;;5.33;2.67;;;;;;;;;;737646;190;918616;-66
2023/07/30 07:11:43;;;;;;;3.50;1.80;;;;;;;;;;742313;190;629322;-67
2023/07/30 07:14:09;;;;;;;5.60;2.37;;;;;;;;;;745060;190;615645;-61
2023/07/30 07:16:35;;;;;;;5.57;2.77;;;;;;;;;;742245;190;631405;-62
2023/07/30 07:19:01;;;;;;;3.50;2.20;;;;;;;;;;740968;190;623635;-62
2023/07/30 07:21:26;;;;;;;5.17;2.37;;;;;;;;;;745060;190;619177;-67
2023/07/30 07:23:52;;;;;;;3.37;2.00;;;;;;;;;;741582;190;621212;-62
2023/07/30 07:26:18;;;;;;;3.10;1.70;;;;;;;;;;741616;190;631528;-66
2023/07/30 07:28:44;;;;;;;4.83;2.40;;;;;;;;;;738667;190;831334;-67
2023/07/30 07:31:10;;;;;;;3.63;2.33;;;;;;;;;;742214;190;907839;-68
2023/07/30 07:33:37;;;;;;;3.90;2.07;;;;;;;;;;736706;190;948703;-62
2023/07/30 07:36:02;;;;;;;3.00;1.97;;;;;;;;;;739098;190;1008757;-66
2023/07/30 07:38:28;;;;;;;8.50;1.80;;;;;;;;;;744697;190;615536;-66
2023/07/30 07:40:54;;;;;;;3.00;1.77;;;;;;;;;;737228;190;923477;-62
2023/07/30 07:43:19;;;;;;;4.00;2.20;;;;;;;;;;737442;190;826758;-66
2023/07/30 07:45:45;;;;;;;2.67;1.50;;;;;;;;;;741505;190;887009;-66
2023/07/30 07:48:11;;;;;;;3.00;1.90;;;;;;;;;;737062;190;906275;-63
2023/07/30 07:50:37;;;;;;;4.00;2.10;;;;;;;;;;736151;190;886804;-67
2023/07/30 07:53:03;;;;;;;4.27;2.67;;;;;;;;;;738936;188;938922;-62
2023/07/30 07:55:29;;;;;;;9.00;2.53;;;;;;;;;;744499;187;868568;-62
2023/07/30 07:57:55;;;;;;;4.80;2.20;;;;;;;;;;739093;190;920186;-63
2023/07/30 08:00:20;;;;;;;5.07;1.90;;;;;;;;;;739333;190;919152;-63
2023/07/30 08:02:46;;;;;;;3.57;2.33;;;;;;;;;;737448;191;918327;-63
2023/07/30 08:05:13;;;;;;;5.23;1.93;;;;;;;;;;731760;191;855761;-67
2023/07/30 08:07:38;;;;;;;4.43;2.00;;;;;;;;;;732718;191;918920;-63
2023/07/30 08:10:04;;;;;;;4.10;2.60;;;;;;;;;;742186;190;922297;-66
2023/07/30 08:12:30;;;;;;;3.53;2.23;;;;;;;;;;738422;190;898100;-63
2023/07/30 08:14:56;;;;;;;4.63;2.17;;;;;;;;;;740492;189;724957;-62
2023/07/30 08:17:22;;;;;;;3.00;1.80;;;;;;;;;;738898;190;1025310;-63
2023/07/30 08:19:48;;;;;;;3.10;2.40;;;;;;;;;;743761;187;919670;-68
2023/07/30 08:22:14;;;;;;;4.23;2.40;;;;;;;;;;737853;190;920664;-63
2023/07/30 08:24:40;;;;;;;5.67;1.77;;;;;;;;;;738102;190;917610;-66
2023/07/30 08:27:06;;;;;;;3.63;2.40;;;;;;;;;;741862;190;920124;-63
2023/07/30 08:29:31;;;;;;;4.67;2.43;;;;;;;;;;733393;190;951837;-62
2023/07/30 08:31:57;;;;;;;3.20;1.87;;;;;;;;;;736134;190;916141;-62
2023/07/30 08:34:23;;;;;;;3.53;2.30;;;;;;;;;;741643;190;918645;-65
2023/07/30 08:36:49;;;;;;;5.20;2.13;;;;;;;;;;736598;190;899145;-61
2023/07/30 08:39:15;;;;;;;3.57;2.30;;;;;;;;;;737945;190;924139;-61
2023/07/30 08:41:41;;;;;;;2.90;1.80;;;;;;;;;;741770;189;919184;-61
2023/07/30 08:44:06;;;;;;;4.93;2.20;;;;;;;;;;736513;190;928922;-67
2023/07/30 08:46:32;;;;;;;4.40;2.20;;;;;;;;;;735523;190;917739;-61
2023/07/30 08:48:58;;;;;;;4.33;2.17;;;;;;;;;;739374;190;845680;-61
2023/07/30 08:51:24;;;;;;;8.47;2.60;;;;;;;;;;744796;190;692384;-66
2023/07/30 08:53:50;;;;;;;7.07;2.50;;;;;;;;;;740315;190;919273;-66
2023/07/30 08:56:16;;;;;;;3.60;2.57;;;;;;;;;;741876;188;637666;-61
2023/07/30 08:58:42;;;;;;;3.57;2.00;;;;;;;;;;744925;190;614767;-61
2023/07/30 09:01:09;;;;;;;4.73;2.00;;;;;;;;;;740310;190;630084;-63
2023/07/30 09:03:34;;;;;;;4.57;1.90;;;;;;;;;;736503;188;917047;-61
2023/07/30 09:06:00;;;;;;;9.03;2.27;;;;;;;;;;742791;189;917737;-61
2023/07/30 09:08:26;;;;;;;4.00;1.80;;;;;;;;;;739413;190;918136;-61
2023/07/30 09:10:52;;;;;;;4.50;2.20;;;;;;;;;;739420;190;907797;-62
2023/07/30 09:13:21;;;;;;;3.53;2.23;;;;;;;;;;740274;190;920742;-66
2023/07/30 09:15:46;;;;;;;4.50;2.10;;;;;;;;;;743236;190;778968;-67
2023/07/30 09:18:12;;;;;;;4.17;2.53;;;;;;;;;;738860;190;918315;-68
2023/07/30 09:20:38;;;;;;;3.30;1.93;;;;;;;;;;738789;190;917476;-67
2023/07/30 09:23:04;;;;;;;3.83;2.10;;;;;;;;;;742568;190;879548;-67
2023/07/30 09:25:30;;;;;;;3.70;2.10;;;;;;;;;;736993;190;920579;-67
2023/07/30 09:27:56;;;;;;;3.53;2.17;;;;;;;;;;727031;191;1133349;-61
2023/07/30 09:30:22;;;;;;;5.90;1.97;;;;;;;;;;744555;189;627832;-68
2023/07/30 09:32:47;;;;;;;3.37;2.30;;;;;;;;;;736102;190;917971;-67
2023/07/30 09:35:13;;;;;;;6.30;2.00;;;;;;;;;;740126;190;816525;-61
2023/07/30 09:37:39;;;;;;;3.30;2.00;;;;;;;;;;736156;190;918944;-61
2023/07/30 09:40:06;;;;;;;4.47;2.10;;;;;;;;;;744403;190;628881;-66
2023/07/30 09:42:33;;;;;;;3.37;2.07;;;;;;;;;;741604;190;618128;-67
2023/07/30 09:44:57;;;;;;;3.80;2.60;;;;;;;;;;739530;188;817489;-66
2023/07/30 09:47:23;;;;;;;5.13;2.30;;;;;;;;;;742698;190;818056;-66
2023/07/30 09:49:49;;;;;;;4.93;2.83;;;;;;;;;;737964;190;914483;-66
2023/07/30 09:52:15;;;;;;;5.70;2.80;;;;;;;;;;737291;190;920152;-66
2023/07/30 09:54:41;;;;;;;8.17;2.57;;;;;;;;;;741680;190;921577;-61
2023/07/30 09:57:07;;;;;;;5.70;2.30;;;;;;;;;;737143;190;916825;-67
2023/07/30 09:59:33;;;;;;;4.13;2.80;;;;;;;;;;736617;190;942439;-67
2023/07/30 10:01:58;;;;;;;5.00;2.30;;;;;;;;;;738107;190;882511;-66
2023/07/30 10:04:24;;;;;;;7.47;2.80;;;;;;;;;;743630;187;902015;-61
2023/07/30 10:06:55;;;;;;;5.50;2.57;;;;;;;;;;736489;190;917850;-66
2023/07/30 10:09:21;;;;;;;4.13;2.30;;;;;;;;;;738429;190;809833;-61
2023/07/30 10:11:47;;;;;;;4.23;2.40;;;;;;;;;;742912;190;700050;-67
2023/07/30 10:14:12;;;;;;;6.50;2.70;;;;;;;;;;739095;190;910306;-67
2023/07/30 10:16:38;;;;;;;4.70;2.20;;;;;;;;;;738209;189;910946;-67
2023/07/30 10:19:04;;;;;;;7.70;2.97;;;;;;;;;;743596;189;818503;-66
2023/07/30 10:21:31;;;;;;;4.77;2.20;;;;;;;;;;743399;190;816834;-61
2023/07/30 10:23:56;;;;;;;5.87;2.40;;;;;;;;;;740084;190;817408;-68
2023/07/30 10:26:22;;;;;;;5.40;2.50;;;;;;;;;;737922;190;919105;-62
2023/07/30 10:28:48;;;;;;;5.47;2.80;;;;;;;;;;741845;190;923348;-66
2023/07/30 10:31:14;;;;;;;3.67;2.40;;;;;;;;;;736490;190;916379;-60
2023/07/30 10:33:43;;;;;;;4.03;2.90;;;;;;;;;;739190;190;817350;-60
2023/07/30 10:36:09;;;;;;;5.70;2.60;;;;;;;;;;741336;190;919046;-67
2023/07/30 10:38:35;;;;;;;4.07;2.70;;;;;;;;;;738500;190;918350;-67
2023/07/30 10:41:03;;;;;;;3.67;2.37;;;;;;;;;;736345;190;918450;-60
2023/07/30 10:43:29;;;;;;;4.10;2.10;;;;;;;;;;736314;190;919342;-60
2023/07/30 10:45:55;;;;;;;5.67;3.07;;;;;;;;;;741840;190;904314;-66
2023/07/30 10:48:21;;;;;;;5.47;2.50;;;;;;;;;;739565;190;828742;-62
2023/07/30 10:50:48;;;;;;;3.40;2.27;;;;;;;;;;739348;190;824400;-60
2023/07/30 10:53:13;;;;;;;4.10;2.67;;;;;;;;;;741863;190;816788;-61
2023/07/30 10:55:39;;;;;;;3.60;2.40;;;;;;;;;;739050;190;817438;-61
2023/07/30 10:58:05;;;;;;;7.95;2.80;;;;;;;;;;737444;190;1021876;-67
2023/07/30 11:00:30;;;;;;;6.17;2.33;;;;;;;;;;740870;190;918180;-67
2023/07/30 11:02:56;;;;;;;4.53;2.63;;;;;;;;;;736897;190;995151;-66
2023/07/30 11:05:24;;;;;;;6.63;2.83;;;;;;;;;;735745;190;945441;-64
2023/07/30 11:07:49;;;;;;;4.20;2.60;;;;;;;;;;735719;190;921070;-60
2023/07/30 11:10:15;;;;;;;4.97;2.90;;;;;;;;;;741584;190;815852;-61
2023/07/30 11:12:40;;;;;;;3.80;2.37;;;;;;;;;;738296;190;918921;-60
2023/07/30 11:15:07;;;;;;;4.33;2.73;;;;;;;;;;737478;190;919118;-66
2023/07/30 11:17:33;;;;;;;7.30;3.03;;;;;;;;;;742724;190;887405;-60
2023/07/30 11:19:58;;;;;;;3.90;2.80;;;;;;;;;;737024;190;918645;-66
2023/07/30 11:22:30;;;;;;;5.50;2.67;;;;;;;;;;730664;191;918549;-66
2023/07/30 11:24:55;;;;;;;3.43;2.40;;;;;;;;;;738045;190;920694;-66
2023/07/30 11:27:21;;;;;;;4.50;2.50;;;;;;;;;;747755;187;816925;-60
2023/07/30 11:29:54;;;;;;;7.77;2.43;;;;;;;;;;740169;190;917952;-67
2023/07/30 11:32:20;;;;;;;3.80;2.30;;;;;;;;;;741815;190;741799;-61
2023/07/30 11:34:45;;;;;;;5.27;2.43;;;;;;;;;;741049;191;637178;-61
2023/07/30 11:37:11;;;;;;;4.43;2.40;;;;;;;;;;736862;191;639465;-67
2023/07/30 11:39:37;;;;;;;4.03;3.00;;;;;;;;;;735309;191;799640;-66
2023/07/30 11:42:03;;;;;;;7.63;2.40;;;;;;;;;;742099;190;635805;-61
2023/07/30 11:44:29;;;;;;;4.80;2.20;;;;;;;;;;743753;190;815991;-66
2023/07/30 11:46:55;;;;;;;4.03;2.90;;;;;;;;;;736865;189;919001;-66
2023/07/30 11:49:21;;;;;;;4.90;2.60;;;;;;;;;;738225;190;918478;-60
2023/07/30 11:51:48;;;;;;;3.87;2.73;;;;;;;;;;743453;190;915420;-60
2023/07/30 11:54:18;;;;;;;7.20;3.30;;;;;;;;;;736605;190;827352;-66
2023/07/30 11:56:44;;;;;;;4.20;2.67;;;;;;;;;;737604;190;919152;-65
2023/07/30 11:59:10;;;;;;;9.27;2.50;;;;;;;;;;737303;190;919085;-60
2023/07/30 12:01:36;;;;;;;3.77;2.87;;;;;;;;;;745689;187;918339;-66
2023/07/30 12:04:01;;;;;;;4.60;2.50;;;;;;;;;;738411;190;918820;-60
2023/07/30 12:06:33;;;;;;;3.93;2.27;;;;;;;;;;738471;190;900387;-66
2023/07/30 12:08:59;;;;;;;4.77;2.43;;;;;;;;;;740920;190;819193;-66
2023/07/30 12:11:25;;;;;;;5.77;3.27;;;;;;;;;;736745;190;916791;-60
2023/07/30 12:13:51;;;;;;;8.95;2.87;;;;;;;;;;738168;190;919736;-66
2023/07/30 12:16:17;;;;;;;6.53;3.10;;;;;;;;;;736811;190;909215;-61
2023/07/30 12:18:42;;;;;;;7.33;3.83;;;;;;;;;;744351;185;911138;-68
2023/07/30 12:21:10;;;;;;;12.03;3.07;;;;;;;;;;738937;190;915738;-62
2023/07/30 12:23:34;;;;;;;8.63;3.77;;;;;;;;;;738053;190;811531;-67
2023/07/30 12:26:00;;;;;;;8.07;2.93;;;;;;;;;;741884;190;920312;-62
2023/07/30 12:28:26;;;;;;;4.53;3.00;;;;;;;;;;737192;190;815360;-62
2023/07/30 12:30:52;;;;;;;6.73;2.63;;;;;;;;;;737215;190;906304;-61
2023/07/30 12:33:18;;;;;;;3.33;1.40;;;;;;;;;;741779;190;903779;-67
2023/07/30 12:35:43;;;;;;;7.03;1.23;;;;;;;;;;738157;190;797723;-61
2023/07/30 12:38:09;;;;;;;2.90;1.50;;;;;;;;;;738857;189;946387;-61
2023/07/30 12:40:35;;;;;;;7.00;1.30;;;;;;;;;;744307;189;919298;-66
2023/07/30 12:43:01;;;;;;;6.93;1.50;;;;;;;;;;740181;190;819685;-60
2023/07/30 12:45:27;;;;;;;15.73;1.30;;;;;;;;;;737588;190;1022213;-59
2023/07/30 12:47:53;;;;;;;2.40;1.10;;;;;;;;;;739479;190;816236;-59
2023/07/30 12:50:18;;;;;;;2.03;0.93;;;;;;;;;;744371;190;830469;-65
2023/07/30 12:52:44;;;;;;;2.20;1.10;;;;;;;;;;737331;190;782731;-64
2023/07/30 12:55:10;;;;;;;2.23;1.23;;;;;;;;;;737023;190;920481;-65
2023/07/30 12:57:36;;;;;;;5.20;1.43;;;;;;;;;;742935;190;816783;-59
2023/07/30 13:00:03;;;;;;;2.30;1.20;;;;;;;;;;736686;190;919172;-65
2023/07/30 13:02:28;;;;;;;3.17;1.30;;;;;;;;;;736599;190;918302;-65
2023/07/30 13:04:53;;;;;;;2.37;1.30;;;;;;;;;;741999;190;919351;-60
2023/07/30 13:07:19;;;;;;;4.70;1.67;;;;;;;;;;738469;190;821194;-65
2023/07/30 13:09:45;;;;;;;3.13;1.40;;;;;;;;;;739305;190;917980;-65
2023/07/30 13:12:11;;;;;;;3.87;1.10;;;;;;;;;;737335;190;925770;-60
2023/07/30 13:14:37;;;;;;;3.20;1.67;;;;;;;;;;740819;190;919036;-61
2023/07/30 13:17:03;;;;;;;4.03;1.30;;;;;;;;;;736273;190;917977;-66
2023/07/30 13:19:30;;;;;;;3.23;1.20;;;;;;;;;;737868;190;922738;-62
2023/07/30 13:21:54;;;;;;;5.83;2.10;;;;;;;;;;741420;190;921314;-63
2023/07/30 13:24:20;;;;;;;8.60;1.30;;;;;;;;;;736317;190;920583;-63
2023/07/30 13:26:46;;;;;;;2.73;1.27;;;;;;;;;;737608;190;848440;-63
2023/07/30 13:29:12;;;;;;;2.30;1.00;;;;;;;;;;743511;190;920154;-64
2023/07/30 13:31:38;;;;;;;3.67;1.20;;;;;;;;;;737990;190;917035;-63
2023/07/30 13:34:04;;;;;;;2.72;1.10;;;;;;;;;;737325;190;899672;-63
2023/07/30 13:36:29;;;;;;;2.43;1.37;;;;;;;;;;739246;190;813540;-67
2023/07/30 13:38:55;;;;;;;3.13;1.63;;;;;;;;;;744785;187;833507;-63
2023/07/30 13:41:21;;;;;;;2.87;1.40;;;;;;;;;;736371;190;919112;-62
2023/07/30 13:43:47;;;;;;;3.00;1.30;;;;;;;;;;737235;190;920176;-67
2023/07/30 13:46:13;;;;;;;4.47;1.40;;;;;;;;;;741908;190;933225;-64
2023/07/30 13:48:39;;;;;;;3.60;1.60;;;;;;;;;;735562;190;914011;-67
2023/07/30 13:51:04;;;;;;;6.83;1.60;;;;;;;;;;738616;188;816203;-67
2023/07/30 13:53:30;;;;;;;2.50;1.10;;;;;;;;;;743774;190;918569;-66
2023/07/30 13:55:56;;;;;;;2.40;1.20;;;;;;;;;;735553;186;920145;-63
2023/07/30 13:58:22;;;;;;;3.07;1.10;;;;;;;;;;738566;190;876566;-62
2023/07/30 14:00:48;;;;;;;4.07;1.47;;;;;;;;;;743115;189;919274;-62
2023/07/30 14:03:14;;;;;;;2.87;1.13;;;;;;;;;;738687;190;901774;-62
2023/07/30 14:05:39;;;;;;;4.57;1.20;;;;;;;;;;735973;190;1040825;-61
2023/07/30 14:08:05;;;;;;;3.40;1.37;;;;;;;;;;736062;190;925060;-61
2023/07/30 14:10:31;;;;;;;2.30;1.17;;;;;;;;;;743594;190;915198;-62
2023/07/30 14:12:57;;;;;;;2.23;1.00;;;;;;;;;;736383;190;919570;-67
2023/07/30 14:15:23;;;;;;;6.80;1.30;;;;;;;;;;739086;190;883280;-66
2023/07/30 14:17:50;;;;;;;3.30;1.23;;;;;;;;;;741866;190;907242;-67
2023/07/30 14:20:15;;;;;;;4.33;1.20;;;;;;;;;;737499;189;912563;-66